Anacostia, District of Columbia
Current Conditions -  °F | °C
As of 3:52 PM on Tuesday 25 Nov 2014 (Local Time) from KDCA Reporting Station
Broken Clouds Broken Clouds  
Wind Chill: 13°   Ceiling: 16000
Heat Index: 13°   Visibility: 10mi
Dew Point:   Wind: 3mph
Humidity: 44%   Direction: 30°NNE
Pressure: 30.05"   Gusts: NA
Location:  38.8618°N, 77.0026°W
Report Text: KDCA 252052Z 03003KT 10SM FEW080 BKN160 BKN230 13/01 A3005 RMK AO2 SLP176 T01330011 55006
Loading
Personal Weather Stations






























Interactive Weather Map New forecast layout! Learn more

10-Day Weather Forecast

Advertisements
Track Severe Weather on mobile